Time;durP1;ratioP1;P1;durP2;ratioP2;P2;SDS_P1;SDS_P2;PMS_P1;PMS_P2;Temp;Humidity;BMP_temperature;BMP_pressure;BME280_temperature;BME280_humidity;BME280_pressure;Samples;Min_cycle;Max_cycle;Signal;HPM_P1;HPM_P2
2023/03/15 00:00:59;;;;;;;;;;;;;;;4.79;63.02;98461.53;5045095;28;4975;-76
2023/03/15 00:03:53;;;;;;;;;;;;;;;4.83;62.77;98462.72;5049452;28;4868;-79
2023/03/15 00:06:45;;;;;;;;;;;;;;;4.78;63.16;98467.91;5050814;28;4840;-79
2023/03/15 00:09:36;;;;;;;;;;;;;;;4.78;63.12;98467.91;5050636;28;4824;-79
2023/03/15 00:12:28;;;;;;;;;;;;;;;4.76;62.94;98468.16;5039111;28;4894;-76
2023/03/15 00:15:20;;;;;;;;;;;;;;;4.74;63.00;98470.25;5053829;28;4827;-77
2023/03/15 00:18:12;;;;;;;;;;;;;;;4.80;62.60;98473.84;5056846;28;5103;-78
2023/03/15 00:21:04;;;;;;;;;;;;;;;4.78;62.64;98482.06;5047719;28;4919;-78
2023/03/15 00:23:56;;;;;;;;;;;;;;;4.75;62.76;98487.84;5050842;28;4910;-78
2023/03/15 00:26:48;;;;;;;;;;;;;;;4.73;62.73;98478.47;5045191;28;4766;-78
2023/03/15 00:29:40;;;;;;;;;;;;;;;4.71;62.95;98481.38;5053099;28;4854;-78
2023/03/15 00:32:32;;;;;;;;;;;;;;;4.68;62.88;98489.84;5050168;28;4791;-77
2023/03/15 00:35:24;;;;;;;;;;;;;;;4.76;62.63;98491.34;5046540;28;4934;-77
2023/03/15 00:38:16;;;;;;;;;;;;;;;4.70;62.81;98494.94;5043803;28;5020;-79
2023/03/15 00:41:08;;;;;;;;;;;;;;;4.67;62.73;98493.53;5048717;28;4729;-78
2023/03/15 00:44:00;;;;;;;;;;;;;;;4.69;62.66;98498.66;5050160;28;4842;-77
2023/03/15 00:46:52;;;;;;;;;;;;;;;4.68;62.56;98503.19;5049328;28;5116;-78
2023/03/15 00:49:45;;;;;;;;;;;;;;;4.69;62.62;98509.31;5051681;28;4867;-78
2023/03/15 00:52:36;;;;;;;;;;;;;;;4.72;62.43;98523.00;5040534;28;4478;-78
2023/03/15 00:55:28;;;;;;;;;;;;;;;4.74;62.36;98528.09;5028660;28;5057;-79
2023/03/15 00:58:20;;;;;;;;;;;;;;;4.72;62.20;98531.00;5028589;28;4767;-77
2023/03/15 01:01:12;;;;;;;;;;;;;;;4.65;62.57;98524.16;5019796;28;4647;-78
2023/03/15 01:04:04;;;;;;;;;;;;;;;4.67;62.46;98525.53;5029393;28;4177;-78
2023/03/15 01:06:56;;;;;;;;;;;;;;;4.67;62.20;98532.72;5041240;28;4717;-76
2023/03/15 01:09:48;;;;;;;;;;;;;;;4.70;62.21;98545.59;5029149;28;4521;-78
2023/03/15 01:12:40;;;;;;;;;;;;;;;4.62;62.40;98537.94;5030135;28;4396;-78
2023/03/15 01:15:32;;;;;;;;;;;;;;;4.65;62.25;98545.50;5027930;28;4462;-77
2023/03/15 01:18:24;;;;;;;;;;;;;;;4.62;62.58;98545.94;5024521;28;4611;-79
2023/03/15 01:21:16;;;;;;;;;;;;;;;4.66;62.32;98547.09;5031014;28;4734;-76
2023/03/15 01:24:08;;;;;;;;;;;;;;;4.61;62.37;98544.31;5027828;28;4736;-77
2023/03/15 01:27:00;;;;;;;;;;;;;;;4.66;62.06;98552.44;5024738;28;4663;-77
2023/03/15 01:29:52;;;;;;;;;;;;;;;4.65;62.16;98556.16;5036314;28;4730;-77
2023/03/15 01:32:44;;;;;;;;;;;;;;;4.63;62.19;98552.91;5020002;28;4790;-76
2023/03/15 01:35:36;;;;;;;;;;;;;;;4.62;62.17;98554.75;5021978;28;4685;-78
2023/03/15 01:38:28;;;;;;;;;;;;;;;4.63;62.02;98556.38;5017814;28;4667;-76
2023/03/15 01:41:22;;;;;;;;;;;;;;;4.61;61.95;98589.63;5025673;28;4678;-78
2023/03/15 01:44:13;;;;;;;;;;;;;;;4.62;61.88;98562.75;5020208;28;4686;-78
2023/03/15 01:47:05;;;;;;;;;;;;;;;4.63;61.87;98564.38;5026230;28;4632;-77
2023/03/15 01:49:57;;;;;;;;;;;;;;;4.59;61.99;98571.22;5036043;28;4862;-78
2023/03/15 01:52:49;;;;;;;;;;;;;;;4.59;62.01;98568.56;5030137;28;4933;-78
2023/03/15 01:55:41;;;;;;;;;;;;;;;4.60;61.93;98572.03;5037489;28;4883;-77
2023/03/15 01:58:33;;;;;;;;;;;;;;;4.57;61.85;98573.28;5023168;28;4412;-77
2023/03/15 02:01:25;;;;;;;;;;;;;;;4.59;61.62;98581.88;5021306;28;4661;-78
2023/03/15 02:04:17;;;;;;;;;;;;;;;4.56;62.16;98574.34;5024125;28;4673;-77
2023/03/15 02:07:09;;;;;;;;;;;;;;;4.53;61.86;98578.28;5026461;28;4681;-76
2023/03/15 02:10:02;;;;;;;;;;;;;;;4.59;61.82;98586.38;5019200;28;4621;-76
2023/03/15 02:12:53;;;;;;;;;;;;;;;4.54;61.85;98589.75;5030763;28;4635;-78
2023/03/15 02:15:46;;;;;;;;;;;;;;;4.54;61.74;98593.22;5031569;28;4971;-76
2023/03/15 02:18:37;;;;;;;;;;;;;;;4.55;61.83;98599.38;5031597;28;4782;-78
2023/03/15 02:21:28;;;;;;;;;;;;;;;4.57;61.64;98604.47;5054424;28;4832;-80
2023/03/15 02:24:20;;;;;;;;;;;;;;;4.60;61.57;98604.03;5045827;28;4978;-77
2023/03/15 02:27:12;;;;;;;;;;;;;;;4.55;61.71;98605.50;5049764;28;4923;-77
2023/03/15 02:30:03;;;;;;;;;;;;;;;4.53;61.60;98612.94;5045057;28;4879;-77
2023/03/15 02:32:55;;;;;;;;;;;;;;;4.55;61.27;98620.69;5039376;28;4851;-79
2023/03/15 02:35:47;;;;;;;;;;;;;;;4.49;61.48;98629.59;5051443;28;5329;-77
2023/03/15 02:38:39;;;;;;;;;;;;;;;4.48;61.65;98627.97;5023127;28;4577;-77
2023/03/15 02:41:31;;;;;;;;;;;;;;;4.53;61.57;98636.13;5020022;28;5186;-79
2023/03/15 02:44:23;;;;;;;;;;;;;;;4.51;61.14;98639.00;5022873;28;4835;-79
2023/03/15 02:47:15;;;;;;;;;;;;;;;4.53;61.64;98646.78;5025747;28;4696;-77
2023/03/15 02:50:08;;;;;;;;;;;;;;;4.51;61.49;98643.53;5033097;28;4728;-76
2023/03/15 02:53:01;;;;;;;;;;;;;;;4.51;61.46;98649.66;5048785;28;4774;-77
2023/03/15 02:55:53;;;;;;;;;;;;;;;4.51;61.74;98648.84;5019793;28;4706;-77
2023/03/15 02:58:45;;;;;;;;;;;;;;;4.46;61.58;98654.03;5030567;28;4799;-77
2023/03/15 03:01:37;;;;;;;;;;;;;;;4.55;61.37;98669.50;5022933;28;4555;-78
2023/03/15 03:04:28;;;;;;;;;;;;;;;4.47;61.58;98669.00;5024239;28;4859;-76
2023/03/15 03:07:19;;;;;;;;;;;;;;;4.49;61.47;98672.25;5022868;28;4662;-76
2023/03/15 03:10:11;;;;;;;;;;;;;;;4.46;61.51;98675.38;5016775;28;4857;-75
2023/03/15 03:13:03;;;;;;;;;;;;;;;4.46;61.66;98680.69;5019387;28;5211;-76
2023/03/15 03:15:58;;;;;;;;;;;;;;;4.50;61.34;98679.19;5021465;28;4625;-75
2023/03/15 03:18:50;;;;;;;;;;;;;;;4.48;61.33;98679.44;5024812;28;4667;-76
2023/03/15 03:21:43;;;;;;;;;;;;;;;4.49;61.27;98685.59;5025764;28;4842;-75
2023/03/15 03:24:34;;;;;;;;;;;;;;;4.48;61.09;98692.78;5020747;28;4749;-78
2023/03/15 03:27:26;;;;;;;;;;;;;;;4.46;61.28;98699.38;5020174;28;4630;-76
2023/03/15 03:30:17;;;;;;;;;;;;;;;4.48;60.98;98703.44;5019820;28;4792;-75
2023/03/15 03:33:09;;;;;;;;;;;;;;;4.44;61.04;98706.75;5012057;28;3820;-77
2023/03/15 03:36:02;;;;;;;;;;;;;;;4.46;61.10;98721.50;5017731;28;3822;-76
2023/03/15 03:38:55;;;;;;;;;;;;;;;4.51;61.17;98716.31;5028908;28;4853;-76
2023/03/15 03:41:48;;;;;;;;;;;;;;;4.47;61.16;98714.31;5024729;28;4323;-77
2023/03/15 03:44:40;;;;;;;;;;;;;;;4.43;61.34;98724.63;5022024;28;4486;-77
2023/03/15 03:47:33;;;;;;;;;;;;;;;4.46;61.00;98734.03;5024139;28;5227;-78
2023/03/15 03:50:24;;;;;;;;;;;;;;;4.44;61.16;98728.09;5025873;28;5129;-77
2023/03/15 03:53:17;;;;;;;;;;;;;;;4.49;60.93;98734.38;5021038;28;4745;-79
2023/03/15 03:56:08;;;;;;;;;;;;;;;4.47;61.03;98738.31;5031196;28;4841;-78
2023/03/15 03:59:00;;;;;;;;;;;;;;;4.45;61.11;98737.72;5046207;28;4915;-76
2023/03/15 04:01:53;;;;;;;;;;;;;;;4.40;61.19;98743.72;5019379;28;4536;-79
2023/03/15 04:04:48;;;;;;;;;;;;;;;4.42;61.23;98743.50;5025996;28;4657;-77
2023/03/15 04:07:41;;;;;;;;;;;;;;;4.43;61.13;98751.28;5020417;28;5061;-76
2023/03/15 04:10:33;;;;;;;;;;;;;;;4.48;60.87;98753.28;5004505;28;4755;-77
2023/03/15 04:13:25;;;;;;;;;;;;;;;4.48;60.56;98762.09;5005153;28;4684;-78
2023/03/15 04:16:16;;;;;;;;;;;;;;;4.54;60.82;98761.19;4999641;28;4618;-80
2023/03/15 04:19:08;;;;;;;;;;;;;;;4.45;60.84;98759.88;5001520;28;4623;-76
2023/03/15 04:22:05;;;;;;;;;;;;;;;4.44;60.78;98765.41;5019533;28;5336;-77
2023/03/15 04:24:57;;;;;;;;;;;;;;;4.46;60.86;98776.69;5019807;28;4799;-79
2023/03/15 04:27:57;;;;;;;;;;;;;;;4.45;60.80;98783.06;5021749;28;4865;-76
2023/03/15 04:30:48;;;;;;;;;;;;;;;4.45;60.76;98791.06;5025903;28;4836;-77
2023/03/15 04:33:40;;;;;;;;;;;;;;;4.43;60.77;98787.78;5023291;28;4867;-75
2023/03/15 04:36:31;;;;;;;;;;;;;;;4.47;60.53;98795.13;5021567;28;4722;-77
2023/03/15 04:39:24;;;;;;;;;;;;;;;4.48;60.76;98793.28;5020389;28;4958;-77
2023/03/15 04:42:15;;;;;;;;;;;;;;;4.45;60.78;98789.19;5021144;28;4580;-79
2023/03/15 04:45:08;;;;;;;;;;;;;;;4.40;60.56;98788.22;5024243;28;4810;-76
2023/03/15 04:48:00;;;;;;;;;;;;;;;4.41;60.65;98790.69;5021490;28;4970;-76
2023/03/15 04:50:51;;;;;;;;;;;;;;;4.46;60.25;98798.00;5019101;28;4572;-77
2023/03/15 04:53:43;;;;;;;;;;;;;;;4.45;60.40;98802.53;5021964;28;4493;-77
2023/03/15 04:56:36;;;;;;;;;;;;;;;4.45;60.49;98805.19;5022909;28;4761;-78
2023/03/15 04:59:27;;;;;;;;;;;;;;;4.43;60.48;98803.78;5037002;28;4607;-76
2023/03/15 05:02:19;;;;;;;;;;;;;;;4.43;60.67;98817.91;5026196;28;4569;-76
2023/03/15 05:05:11;;;;;;;;;;;;;;;4.45;60.40;98831.03;5016098;28;4692;-76
2023/03/15 05:08:03;;;;;;;;;;;;;;;4.50;60.17;98825.84;5022620;28;4797;-77
2023/03/15 05:10:55;;;;;;;;;;;;;;;4.44;60.21;98824.06;5029684;28;4563;-78
2023/03/15 05:13:47;;;;;;;;;;;;;;;4.44;60.38;98818.72;5024375;28;4612;-76
2023/03/15 05:16:39;;;;;;;;;;;;;;;4.45;60.31;98825.72;5023291;28;4802;-78
2023/03/15 05:19:33;;;;;;;;;;;;;;;4.47;60.47;98826.28;5026230;28;4623;-76
2023/03/15 05:22:24;;;;;;;;;;;;;;;4.40;60.58;98836.22;5020599;28;4678;-77
2023/03/15 05:25:16;;;;;;;;;;;;;;;4.45;60.21;98837.19;5022573;28;4611;-77
2023/03/15 05:28:08;;;;;;;;;;;;;;;4.37;60.51;98848.13;5025549;28;4667;-77
2023/03/15 05:31:02;;;;;;;;;;;;;;;4.41;60.21;98854.66;5027580;28;4497;-78
2023/03/15 05:33:53;;;;;;;;;;;;;;;4.45;60.21;98853.19;5023245;28;4696;-79
2023/03/15 05:36:45;;;;;;;;;;;;;;;4.51;60.07;98846.16;5023428;28;5192;-77
2023/03/15 05:39:36;;;;;;;;;;;;;;;4.38;60.30;98852.41;5021613;28;4682;-76
2023/03/15 05:42:28;;;;;;;;;;;;;;;4.46;59.78;98854.78;5029688;28;4733;-78
2023/03/15 05:45:19;;;;;;;;;;;;;;;4.40;59.95;98863.69;5023533;28;4686;-78
2023/03/15 05:48:11;;;;;;;;;;;;;;;4.44;59.84;98859.56;5026861;28;4867;-76
2023/03/15 05:51:04;;;;;;;;;;;;;;;4.47;59.97;98874.28;5026371;28;4803;-79
2023/03/15 05:53:56;;;;;;;;;;;;;;;4.42;59.69;98880.28;5022191;28;4623;-76
2023/03/15 05:56:47;;;;;;;;;;;;;;;4.42;59.95;98892.78;5019909;28;3761;-78
2023/03/15 05:59:40;;;;;;;;;;;;;;;4.46;59.97;98891.31;5030520;28;4801;-78
2023/03/15 06:02:33;;;;;;;;;;;;;;;4.50;59.50;98890.66;5042546;28;5329;-74
2023/03/15 06:05:24;;;;;;;;;;;;;;;4.44;59.56;98885.38;5025216;28;4473;-76
2023/03/15 06:08:16;;;;;;;;;;;;;;;4.51;59.55;98900.28;5026399;28;5028;-76
2023/03/15 06:11:07;;;;;;;;;;;;;;;4.46;59.76;98910.78;5026256;28;5149;-79
2023/03/15 06:13:59;;;;;;;;;;;;;;;4.41;59.73;98915.97;5023987;28;4831;-76
2023/03/15 06:16:51;;;;;;;;;;;;;;;4.43;59.58;98934.41;5018480;28;4978;-76
2023/03/15 06:19:43;;;;;;;;;;;;;;;4.35;60.01;98924.81;5031818;28;5034;-76
2023/03/15 06:22:36;;;;;;;;;;;;;;;4.37;60.10;98944.09;5032984;28;5201;-77
2023/03/15 06:25:27;;;;;;;;;;;;;;;4.46;59.62;98941.97;5021054;28;5505;-77
2023/03/15 06:28:20;;;;;;;;;;;;;;;4.46;59.52;98940.09;5025989;28;5448;-75
2023/03/15 06:31:14;;;;;;;;;;;;;;;4.45;59.61;98951.81;5027386;28;5025;-75
2023/03/15 06:34:06;;;;;;;;;;;;;;;4.44;59.56;98963.53;5026659;28;4971;-77
2023/03/15 06:36:57;;;;;;;;;;;;;;;4.43;59.92;98974.38;5018211;28;5034;-75
2023/03/15 06:39:49;;;;;;;;;;;;;;;4.38;59.73;98972.38;5032306;28;5038;-77
2023/03/15 06:42:41;;;;;;;;;;;;;;;4.37;59.51;98978.75;5022907;28;4981;-78
2023/03/15 06:45:32;;;;;;;;;;;;;;;4.41;59.83;98987.94;5029107;28;5069;-77
2023/03/15 06:48:24;;;;;;;;;;;;;;;4.43;59.49;98999.19;5007624;28;4802;-78
2023/03/15 06:51:16;;;;;;;;;;;;;;;4.42;59.54;99010.91;5005463;28;4772;-77
2023/03/15 06:54:08;;;;;;;;;;;;;;;4.40;59.58;99012.16;5022261;28;4993;-76
2023/03/15 06:57:00;;;;;;;;;;;;;;;4.40;59.61;99020.16;5028751;28;4902;-79
2023/03/15 06:59:53;;;;;;;;;;;;;;;4.45;59.50;99020.31;5031597;28;5088;-77
2023/03/15 07:02:44;;;;;;;;;;;;;;;4.43;59.42;99022.38;5026162;28;4921;-77
2023/03/15 07:05:37;;;;;;;;;;;;;;;4.40;59.68;99042.28;5027175;28;4794;-78
2023/03/15 07:08:28;;;;;;;;;;;;;;;4.51;59.09;99040.78;5024613;28;4997;-79
2023/03/15 07:11:19;;;;;;;;;;;;;;;4.45;59.39;99045.13;5045706;28;4978;-78
2023/03/15 07:14:11;;;;;;;;;;;;;;;4.38;59.51;99055.00;5041574;28;4898;-76
2023/03/15 07:17:04;;;;;;;;;;;;;;;4.46;59.39;99073.41;5028177;28;4795;-78
2023/03/15 07:19:55;;;;;;;;;;;;;;;4.43;59.33;99070.38;5030181;28;4567;-77
2023/03/15 07:22:48;;;;;;;;;;;;;;;4.40;59.53;99078.78;5030683;28;4658;-79
2023/03/15 07:25:39;;;;;;;;;;;;;;;4.35;59.66;99090.09;5026094;28;4664;-79
2023/03/15 07:28:30;;;;;;;;;;;;;;;4.42;59.57;99085.53;5034797;28;3720;-78
2023/03/15 07:31:23;;;;;;;;;;;;;;;4.46;59.42;99085.94;5048282;28;4918;-78
2023/03/15 07:34:14;;;;;;;;;;;;;;;4.42;59.57;99088.22;5036128;22;4960;-75
2023/03/15 07:37:06;;;;;;;;;;;;;;;4.41;59.57;99099.06;5009552;28;4994;-76
2023/03/15 07:39:59;;;;;;;;;;;;;;;4.41;59.44;99105.25;5010300;28;4499;-79
2023/03/15 07:42:51;;;;;;;;;;;;;;;4.36;59.91;99106.94;5018509;28;6564;-78
2023/03/15 07:45:43;;;;;;;;;;;;;;;4.41;59.62;99107.91;5018798;28;4922;-78
2023/03/15 07:48:35;;;;;;;;;;;;;;;4.43;59.36;99105.03;5020635;28;4925;-76
2023/03/15 07:51:27;;;;;;;;;;;;;;;4.47;59.34;99125.72;5015999;28;4883;-77
2023/03/15 07:54:19;;;;;;;;;;;;;;;4.41;59.55;99123.91;5008106;28;4821;-76
2023/03/15 07:57:11;;;;;;;;;;;;;;;4.43;59.71;99121.00;5014157;28;4475;-77
2023/03/15 08:00:04;;;;;;;;;;;;;;;4.43;59.53;99121.81;5017926;28;4837;-78
2023/03/15 08:02:56;;;;;;;;;;;;;;;4.40;59.51;99106.25;5020112;28;4902;-79
2023/03/15 08:05:47;;;;;;;;;;;;;;;4.46;59.45;99125.91;5017008;28;4843;-79
2023/03/15 08:08:39;;;;;;;;;;;;;;;4.42;59.56;99127.38;5022165;28;4968;-81
2023/03/15 08:11:30;;;;;;;;;;;;;;;4.41;59.46;99144.41;5019015;28;5150;-78
2023/03/15 08:14:23;;;;;;;;;;;;;;;4.48;59.38;99145.19;5020817;28;4909;-76
2023/03/15 08:17:15;;;;;;;;;;;;;;;4.42;59.57;99167.38;5021461;28;4881;-77
2023/03/15 08:20:08;;;;;;;;;;;;;;;4.44;59.77;99174.13;5022439;28;4922;-77
2023/03/15 08:23:01;;;;;;;;;;;;;;;4.44;59.75;99176.81;5016472;28;4969;-75
2023/03/15 08:25:52;;;;;;;;;;;;;;;4.52;59.42;99176.53;5021489;28;4306;-77
2023/03/15 08:28:43;;;;;;;;;;;;;;;4.50;59.47;99172.44;5023729;28;4429;-77
2023/03/15 08:31:35;;;;;;;;;;;;;;;4.55;59.35;99186.78;5031786;28;2419;-77
2023/03/15 08:34:27;;;;;;;;;;;;;;;4.44;59.61;99195.47;5025668;28;2467;-77
2023/03/15 08:37:20;;;;;;;;;;;;;;;3.93;59.48;99105.69;5018008;28;2553;-78
2023/03/15 08:40:12;;;;;;;;;;;;;;;4.49;59.60;99205.47;5025940;28;1569;-77
2023/03/15 08:43:03;;;;;;;;;;;;;;;4.52;59.48;99208.53;5030699;28;2078;-76
2023/03/15 08:45:57;;;;;;;;;;;;;;;4.54;59.47;99205.66;5021924;28;2336;-77
2023/03/15 08:48:49;;;;;;;;;;;;;;;4.52;59.53;99211.19;5021767;28;2727;-75
2023/03/15 08:51:41;;;;;;;;;;;;;;;4.53;59.62;99214.72;5028789;28;2620;-77
2023/03/15 08:54:33;;;;;;;;;;;;;;;4.57;59.60;99221.25;5029620;28;2752;-77
2023/03/15 08:57:25;;;;;;;;;;;;;;;4.51;59.74;99222.91;5029762;28;2502;-78
2023/03/15 09:00:19;;;;;;;;;;;;;;;4.62;59.55;99221.41;5032480;28;2494;-77
2023/03/15 09:03:10;;;;;;;;;;;;;;;4.56;59.58;99230.28;5031039;28;2499;-78
2023/03/15 09:06:02;;;;;;;;;;;;;;;4.61;59.70;99234.97;5028828;28;2533;-77
2023/03/15 09:08:54;;;;;;;;;;;;;;;4.61;59.59;99230.44;5023853;28;2427;-76
2023/03/15 09:11:46;;;;;;;;;;;;;;;4.61;59.58;99229.63;5022501;28;5123;-77
2023/03/15 09:14:37;;;;;;;;;;;;;;;4.62;59.74;99232.09;5008342;28;4606;-77
2023/03/15 09:17:30;;;;;;;;;;;;;;;4.65;59.61;99249.53;5011970;28;4550;-77
2023/03/15 09:20:26;;;;;;;;;;;;;;;4.77;59.31;99245.16;5018944;28;4178;-75
2023/03/15 09:23:19;;;;;;;;;;;;;;;4.71;59.58;99249.47;5007829;28;4467;-77
2023/03/15 09:26:11;;;;;;;;;;;;;;;4.70;59.73;99249.69;5009189;28;4425;-76
2023/03/15 09:29:03;;;;;;;;;;;;;;;4.70;59.81;99255.81;5009424;28;4665;-77
2023/03/15 09:31:55;;;;;;;;;;;;;;;4.73;59.90;99262.59;5011456;28;4551;-76
2023/03/15 09:34:46;;;;;;;;;;;;;;;4.74;59.73;99266.91;5012548;28;3704;-76
2023/03/15 09:37:39;;;;;;;;;;;;;;;4.77;59.56;99269.16;5008441;28;4361;-76
2023/03/15 09:40:30;;;;;;;;;;;;;;;4.83;59.52;99280.81;5009719;28;4627;-75
2023/03/15 09:43:23;;;;;;;;;;;;;;;4.84;59.42;99283.25;5009120;28;4440;-77
2023/03/15 09:46:15;;;;;;;;;;;;;;;4.85;59.48;99284.06;5008649;28;3778;-77
2023/03/15 09:49:07;;;;;;;;;;;;;;;4.85;59.72;99295.56;5009282;28;4781;-76
2023/03/15 09:51:58;;;;;;;;;;;;;;;4.84;59.63;99309.13;5011830;28;4748;-76
2023/03/15 09:54:50;;;;;;;;;;;;;;;4.88;59.61;99308.50;5007886;28;4733;-77
2023/03/15 09:57:42;;;;;;;;;;;;;;;4.89;59.63;99302.13;5009117;28;4692;-76
2023/03/15 10:00:34;;;;;;;;;;;;;;;4.92;59.47;99314.22;5006537;28;3761;-77
2023/03/15 10:03:26;;;;;;;;;;;;;;;5.00;59.56;99311.31;5021956;28;4933;-76
2023/03/15 10:06:17;;;;;;;;;;;;;;;4.97;59.66;99309.88;5022166;28;4840;-77
2023/03/15 10:09:09;;;;;;;;;;;;;;;4.95;59.82;99325.28;5024092;28;4901;-76
2023/03/15 10:12:02;;;;;;;;;;;;;;;4.96;59.81;99323.44;5023393;28;4891;-78
2023/03/15 10:14:53;;;;;;;;;;;;;;;5.00;59.69;99338.81;5022356;28;5134;-77
2023/03/15 10:17:45;;;;;;;;;;;;;;;5.05;59.64;99335.50;5026397;28;4967;-77
2023/03/15 10:20:36;;;;;;;;;;;;;;;5.05;59.75;99334.69;5023683;28;4886;-76
2023/03/15 10:23:28;;;;;;;;;;;;;;;5.10;59.72;99345.53;5020840;28;4836;-77
2023/03/15 10:26:20;;;;;;;;;;;;;;;5.04;59.92;99362.41;5024865;28;4799;-74
2023/03/15 10:29:13;;;;;;;;;;;;;;;5.16;59.88;99358.03;5014667;28;4784;-76
2023/03/15 10:32:04;;;;;;;;;;;;;;;5.14;59.78;99358.22;5013409;28;4391;-76
2023/03/15 10:34:57;;;;;;;;;;;;;;;5.10;59.84;99364.22;5007971;28;4497;-76
2023/03/15 10:37:49;;;;;;;;;;;;;;;5.13;59.86;99367.28;5024696;28;4981;-76
2023/03/15 10:40:40;;;;;;;;;;;;;;;5.22;59.99;99371.34;5018530;28;4926;-76
2023/03/15 10:43:34;;;;;;;;;;;;;;;5.21;60.02;99374.22;5023847;28;4874;-76
2023/03/15 10:46:26;;;;;;;;;;;;;;;5.20;59.83;99376.06;5026075;28;4886;-78
2023/03/15 10:49:17;;;;;;;;;;;;;;;5.26;59.82;99374.38;5013536;28;4895;-77
2023/03/15 10:52:10;;;;;;;;;;;;;;;5.28;59.98;99383.00;5011242;28;4397;-79
2023/03/15 10:55:02;;;;;;;;;;;;;;;5.37;59.75;99397.75;5006882;28;4513;-78
2023/03/15 10:57:54;;;;;;;;;;;;;;;5.38;59.60;99398.56;5004684;28;4630;-79
2023/03/15 11:00:46;;;;;;;;;;;;;;;5.37;59.85;99405.75;5014796;28;4802;-77
2023/03/15 11:03:38;;;;;;;;;;;;;;;5.39;59.91;99405.56;5004618;28;4696;-79
2023/03/15 11:06:29;;;;;;;;;;;;;;;5.40;60.11;99416.00;5003650;28;4558;-79
2023/03/15 11:09:22;;;;;;;;;;;;;;;5.43;59.76;99418.25;5010615;28;4514;-79
2023/03/15 11:12:13;;;;;;;;;;;;;;;5.50;59.80;99420.06;5019076;28;4873;-79
2023/03/15 11:15:04;;;;;;;;;;;;;;;5.46;60.00;99430.38;5016502;28;4831;-78
2023/03/15 11:17:56;;;;;;;;;;;;;;;5.54;59.80;99426.63;5014677;28;5017;-78
2023/03/15 11:20:49;;;;;;;;;;;;;;;5.59;59.93;99430.31;5017448;28;5156;-80
2023/03/15 11:23:40;;;;;;;;;;;;;;;5.64;59.77;99445.66;5022528;28;4959;-78
2023/03/15 11:26:32;;;;;;;;;;;;;;;5.62;59.92;99445.91;5016529;28;4518;-77
2023/03/15 11:29:24;;;;;;;;;;;;;;;5.65;59.84;99444.66;5024403;28;4842;-79
2023/03/15 11:32:15;;;;;;;;;;;;;;;5.71;59.84;99454.47;5015173;28;4881;-78
2023/03/15 11:35:06;;;;;;;;;;;;;;;5.72;60.00;99463.31;5020904;28;4834;-79
2023/03/15 11:38:00;;;;;;;;;;;;;;;5.68;60.04;99462.94;5019104;28;4898;-78
2023/03/15 11:40:51;;;;;;;;;;;;;;;5.68;60.06;99470.94;5016885;28;5111;-79
2023/03/15 11:43:43;;;;;;;;;;;;;;;5.68;59.94;99471.75;5021003;28;4842;-78
2023/03/15 11:46:34;;;;;;;;;;;;;;;5.74;60.13;99475.44;5013618;28;5015;-78
2023/03/15 11:49:26;;;;;;;;;;;;;;;5.80;60.01;99487.13;5020586;28;4676;-78
2023/03/15 11:52:19;;;;;;;;;;;;;;;5.78;60.17;99495.31;5019221;28;5033;-80
2023/03/15 11:55:10;;;;;;;;;;;;;;;5.83;60.22;99492.03;5012848;28;5173;-78
2023/03/15 11:58:02;;;;;;;;;;;;;;;5.83;60.20;99492.03;5023730;28;4812;-78
2023/03/15 12:00:55;;;;;;;;;;;;;;;5.86;60.03;99496.94;5021527;28;4857;-78
2023/03/15 12:03:48;;;;;;;;;;;;;;;5.88;59.97;99500.19;5028024;28;4897;-77
2023/03/15 12:06:40;;;;;;;;;;;;;;;5.85;60.17;99504.16;5023773;28;4962;-78
2023/03/15 12:09:31;;;;;;;;;;;;;;;5.96;59.95;99509.84;5049659;23;4974;-80
2023/03/15 12:12:23;;;;;;;;;;;;;;;5.95;59.75;99519.72;5049893;28;5023;-77
2023/03/15 12:15:15;;;;;;;;;;;;;;;5.93;60.16;99535.16;5048074;28;5176;-77
2023/03/15 12:18:07;;;;;;;;;;;;;;;5.94;60.28;99531.44;5046661;28;4808;-77
2023/03/15 12:20:59;;;;;;;;;;;;;;;6.04;60.09;99537.16;5048799;28;4908;-78
2023/03/15 12:23:52;;;;;;;;;;;;;;;5.97;60.35;99541.72;5051075;28;4919;-79
2023/03/15 12:26:44;;;;;;;;;;;;;;;6.02;60.25;99544.56;5051631;28;4876;-80
2023/03/15 12:29:36;;;;;;;;;;;;;;;6.00;60.27;99546.66;5048906;28;5208;-78
2023/03/15 12:32:27;;;;;;;;;;;;;;;6.07;60.17;99543.94;5049562;28;4923;-78
2023/03/15 12:35:21;;;;;;;;;;;;;;;6.06;60.32;99544.94;5049575;28;4983;-78
2023/03/15 12:38:13;;;;;;;;;;;;;;;6.17;60.44;99548.81;5051162;28;4938;-76
2023/03/15 12:41:05;;;;;;;;;;;;;;;6.09;60.10;99561.41;5050015;28;4802;-80
2023/03/15 12:43:57;;;;;;;;;;;;;;;6.12;60.48;99563.66;5051825;28;4866;-78
2023/03/15 12:46:49;;;;;;;;;;;;;;;6.13;60.40;99567.94;5050820;28;4965;-78
2023/03/15 12:49:41;;;;;;;;;;;;;;;6.09;60.67;99569.41;5049850;28;5192;-78
2023/03/15 12:52:32;;;;;;;;;;;;;;;6.12;60.59;99569.00;5048022;28;4847;-78
2023/03/15 12:55:25;;;;;;;;;;;;;;;6.17;60.36;99572.84;5046265;28;4948;-77
2023/03/15 12:58:17;;;;;;;;;;;;;;;6.17;60.55;99580.88;5047940;28;4887;-78
2023/03/15 13:01:09;;;;;;;;;;;;;;;6.20;60.70;99575.91;5050844;28;4976;-77
2023/03/15 13:04:01;;;;;;;;;;;;;;;6.21;60.59;99580.25;5048262;28;5196;-80
2023/03/15 13:06:53;;;;;;;;;;;;;;;6.16;60.86;99585.41;5046627;28;4923;-80
2023/03/15 13:09:45;;;;;;;;;;;;;;;6.20;60.86;99588.47;5026384;28;4867;-80
2023/03/15 13:12:39;;;;;;;;;;;;;;;6.26;60.75;99588.44;5019474;28;4720;-79
2023/03/15 13:15:31;;;;;;;;;;;;;;;5.94;44.25;99600.13;5008310;28;4855;-79
2023/03/15 13:18:23;;;;;;;;;;;;;;;6.22;49.21;99607.81;5031264;28;4468;-77
2023/03/15 13:21:15;;;;;;;;;;;;;;;6.22;51.43;99602.47;5019981;28;4850;-79
2023/03/15 13:24:07;;;;;;;;;;;;;;;6.26;52.76;99609.81;5029553;28;5272;-80
2023/03/15 13:27:00;;;;;;;;;;;;;;;6.28;53.78;99605.09;5024906;28;4685;-78
2023/03/15 13:29:52;;;;;;;;;;;;;;;6.32;54.97;99622.38;5027308;28;4983;-79
2023/03/15 13:32:44;;;;;;;;;;;;;;;6.35;55.40;99619.25;5029186;28;4894;-79
2023/03/15 13:35:35;;;;;;;;;;;;;;;6.36;55.78;99617.41;5031056;28;5050;-81
2023/03/15 13:38:28;;;;;;;;;;;;;;;6.36;56.46;99628.91;5027431;28;5233;-78
2023/03/15 13:41:20;;;;;;;;;;;;;;;6.41;56.58;99632.78;5020105;28;4358;-78
2023/03/15 13:44:12;;;;;;;;;;;;;;;6.40;57.29;99633.81;5030047;28;4997;-78
2023/03/15 13:47:04;;;;;;;;;;;;;;;6.42;57.78;99639.78;5015206;28;4451;-80
2023/03/15 13:49:56;;;;;;;;;;;;;;;6.43;57.74;99638.75;5018189;28;4493;-78
2023/03/15 13:52:48;;;;;;;;;;;;;;;6.41;58.35;99644.28;5030821;28;4883;-79
2023/03/15 13:55:40;;;;;;;;;;;;;;;6.41;58.31;99651.50;5026488;28;5257;-78
2023/03/15 13:58:32;;;;;;;;;;;;;;;6.46;56.79;99651.69;5014916;28;4942;-78
2023/03/15 14:01:24;;;;;;;;;;;;;;;6.41;58.37;99651.50;5027606;28;4798;-78
2023/03/15 14:04:16;;;;;;;;;;;;;;;6.49;58.05;99662.78;5027716;28;5081;-79
2023/03/15 14:07:08;;;;;;;;;;;;;;;6.49;58.48;99657.44;5024760;28;4786;-79
2023/03/15 14:10:00;;;;;;;;;;;;;;;6.54;58.38;99668.31;5030260;28;5021;-78
2023/03/15 14:12:52;;;;;;;;;;;;;;;6.54;58.74;99667.50;5027090;28;4856;-78
2023/03/15 14:15:51;;;;;;;;;;;;;;;6.59;58.97;99683.72;5018413;28;4855;-76
2023/03/15 14:18:42;;;;;;;;;;;;;;;6.55;59.09;99675.28;5011268;28;4539;-77
2023/03/15 14:21:35;;;;;;;;;;;;;;;6.57;59.44;99686.59;5005708;28;4733;-77
2023/03/15 14:24:26;;;;;;;;;;;;;;;6.56;59.44;99687.66;5006469;28;3766;-78
2023/03/15 14:27:19;;;;;;;;;;;;;;;6.62;59.36;99696.69;5006320;28;4842;-78
2023/03/15 14:30:11;;;;;;;;;;;;;;;6.65;59.23;99696.25;5009111;28;4805;-78
2023/03/15 14:33:03;;;;;;;;;;;;;;;6.62;59.66;99699.34;5011530;28;4437;-75
2023/03/15 14:36:00;;;;;;;;;;;;;;;6.64;59.68;99696.44;5009048;28;3632;-77
2023/03/15 14:38:52;;;;;;;;;;;;;;;6.67;59.75;99706.72;5010213;28;3780;-78
2023/03/15 14:41:44;;;;;;;;;;;;;;;6.68;60.18;99697.69;5011309;28;4352;-76
2023/03/15 14:44:36;;;;;;;;;;;;;;;6.68;60.20;99709.19;5022787;28;4749;-78
2023/03/15 14:47:28;;;;;;;;;;;;;;;6.68;60.28;99706.53;5026025;28;4773;-77
2023/03/15 14:50:20;;;;;;;;;;;;;;;6.70;60.41;99712.47;5028620;28;4802;-77
2023/03/15 14:53:11;;;;;;;;;;;;;;;6.74;60.12;99710.19;5027317;28;4816;-78
2023/03/15 14:56:04;;;;;;;;;;;;;;;6.76;60.07;99716.13;5026760;28;4867;-79
2023/03/15 14:58:56;;;;;;;;;;;;;;;6.76;60.35;99724.97;5023454;28;4783;-78
2023/03/15 15:01:48;;;;;;;;;;;;;;;6.76;60.34;99740.22;5020714;28;4730;-78
2023/03/15 15:04:42;;;;;;;;;;;;;;;6.76;60.59;99735.69;5008838;28;4492;-78
2023/03/15 15:07:34;;;;;;;;;;;;;;;6.78;60.67;99738.16;5008405;28;4587;-77
2023/03/15 15:10:26;;;;;;;;;;;;;;;6.80;60.50;99752.97;5024265;28;4606;-78
2023/03/15 15:13:18;;;;;;;;;;;;;;;6.80;60.71;99752.16;5030928;28;3700;-77
2023/03/15 15:16:10;;;;;;;;;;;;;;;6.84;60.54;99753.34;5030348;28;4763;-78
2023/03/15 15:19:03;;;;;;;;;;;;;;;6.85;60.63;99762.22;5040950;28;4947;-78